Time;durP1;ratioP1;P1;durP2;ratioP2;P2;SDS_P1;SDS_P2;PMS_P1;PMS_P2;Temp;Humidity;BMP_temperature;BMP_pressure;BME280_temperature;BME280_humidity;BME280_pressure;Samples;Min_cycle;Max_cycle;Signal;HPM_P1;HPM_P2
2023/10/10 00:00:27;;;;;;;36.00;23.02;;;17.20;99.90;;;17.51;79.11;101059.81;5042776;28;20060;-80
2023/10/10 00:02:56;;;;;;;35.30;22.90;;;17.20;99.90;;;17.51;79.24;101055.22;5036174;28;20053;-80
2023/10/10 00:05:36;;;;;;;37.10;22.48;;;17.20;99.90;;;17.51;79.39;101052.53;5042725;28;20053;-80
2023/10/10 00:08:09;;;;;;;35.10;23.13;;;17.20;99.90;;;17.52;79.17;101056.06;5026745;28;20045;-80
2023/10/10 00:10:44;;;;;;;38.53;22.77;;;17.20;99.90;;;17.53;79.37;101052.31;5027095;28;20050;-80
2023/10/10 00:13:13;;;;;;;37.13;24.70;;;17.20;99.90;;;17.52;79.51;101050.69;5044350;28;20045;-80
2023/10/10 00:15:49;;;;;;;43.58;24.40;;;17.20;99.90;;;17.53;79.09;101046.91;5039910;28;20042;-80
2023/10/10 00:18:18;;;;;;;49.33;26.45;;;17.20;99.90;;;17.53;79.43;101040.72;5033651;28;20504;-80
2023/10/10 00:21:05;;;;;;;36.03;24.90;;;17.20;99.90;;;17.52;79.64;101045.28;5041878;28;20048;-80
2023/10/10 00:23:42;;;;;;;43.55;25.63;;;17.20;99.90;;;17.53;79.39;101051.50;4998409;28;20042;-80
2023/10/10 00:26:13;;;;;;;42.72;26.42;;;17.20;99.90;;;17.52;79.33;101056.06;5041627;28;20050;-80
2023/10/10 00:28:53;;;;;;;44.33;26.70;;;17.20;99.90;;;17.54;79.44;101053.94;5032320;28;20076;-80
2023/10/10 00:31:22;;;;;;;44.47;26.80;;;17.20;99.90;;;17.52;79.18;101056.06;5056760;28;20037;-80
2023/10/10 00:33:51;;;;;;;43.90;27.48;;;17.20;99.90;;;17.52;79.47;101053.38;5040642;28;20042;-80
2023/10/10 00:36:22;;;;;;;43.97;26.10;;;17.20;99.90;;;17.51;79.32;101049.84;5031235;28;20042;-80
2023/10/10 00:38:57;;;;;;;40.20;26.15;;;17.20;99.90;;;17.51;79.13;101043.63;5027778;28;20125;-80
2023/10/10 00:41:26;;;;;;;44.42;27.38;;;17.20;99.90;;;17.51;79.52;101047.13;5039853;28;20101;-80
2023/10/10 00:43:54;;;;;;;46.25;27.98;;;17.20;99.90;;;17.51;79.52;101055.22;5016084;28;20034;-80
2023/10/10 00:46:32;;;;;;;45.00;28.40;;;17.20;99.90;;;17.51;79.26;101044.44;5030665;28;20469;-80
2023/10/10 00:49:01;;;;;;;44.53;28.33;;;17.20;99.90;;;17.52;79.07;101042.59;5036366;28;20073;-80
2023/10/10 00:51:33;;;;;;;43.17;26.70;;;17.20;99.90;;;17.51;79.45;101044.44;5015943;28;20045;-80
2023/10/10 00:56:52;;;;;;;43.45;27.38;;;17.20;99.90;;;17.50;79.42;101031.22;5027822;28;20046;-80
2023/10/10 00:59:20;;;;;;;43.75;28.45;;;17.20;99.90;;;17.48;79.40;101036.84;5022791;28;20069;-80
2023/10/10 01:01:49;;;;;;;42.70;29.60;;;17.20;99.90;;;17.47;79.38;101032.53;5028141;28;20045;-80
2023/10/10 01:04:28;;;;;;;47.30;28.33;;;17.10;99.90;;;17.47;79.24;101029.84;5029095;28;20038;-80
2023/10/10 01:06:56;;;;;;;48.67;29.70;;;17.10;99.90;;;17.44;79.09;101027.59;5037934;28;20056;-80
2023/10/10 01:09:34;;;;;;;45.95;29.83;;;17.10;99.90;;;17.45;78.96;101033.81;5033975;28;20041;-80
2023/10/10 01:12:04;;;;;;;47.40;28.80;;;17.10;99.90;;;17.43;78.92;101025.97;5039070;28;20456;-80
2023/10/10 01:14:32;;;;;;;44.60;29.95;;;17.10;99.90;;;17.44;78.77;101029.50;5036173;28;20038;-80
2023/10/10 01:16:59;;;;;;;49.97;30.08;;;17.10;99.90;;;17.42;78.94;101029.75;5034464;28;20045;-80
2023/10/10 01:19:28;;;;;;;51.47;30.13;;;17.10;99.90;;;17.40;78.88;101026.47;5040530;28;20492;-80
2023/10/10 01:21:59;;;;;;;48.65;31.15;;;17.00;99.90;;;17.42;78.79;101035.13;5041422;28;20045;-80
2023/10/10 01:24:27;;;;;;;48.60;29.33;;;17.10;99.90;;;17.41;78.72;101027.28;5043638;28;20048;-80
2023/10/10 01:27:03;;;;;;;52.50;32.03;;;17.00;99.90;;;17.39;78.74;101021.31;5033992;28;20081;-80
2023/10/10 01:29:40;;;;;;;52.22;32.50;;;17.10;99.90;;;17.38;78.73;101027.78;5046895;28;20050;-80
2023/10/10 01:32:10;;;;;;;52.17;31.73;;;17.00;99.90;;;17.39;78.85;101018.63;5044827;28;20044;-80
2023/10/10 01:34:43;;;;;;;53.08;33.70;;;17.10;99.90;;;17.38;78.56;101023.19;5043103;28;20053;-80
2023/10/10 01:37:20;;;;;;;51.75;33.17;;;17.00;99.90;;;17.36;78.95;101019.91;5039957;28;20140;-80
2023/10/10 01:40:06;;;;;;;51.28;33.33;;;17.00;99.90;;;17.36;78.97;101017.22;5012189;28;20057;-80
2023/10/10 01:42:37;;;;;;;49.78;33.10;;;17.00;99.90;;;17.34;79.05;101015.84;5008673;28;20041;-80
2023/10/10 01:45:09;;;;;;;51.58;31.52;;;17.00;99.90;;;17.35;78.96;101018.28;5032845;28;20068;-81
2023/10/10 01:47:39;;;;;;;51.65;32.50;;;17.00;99.90;;;17.34;78.94;101013.94;5035662;28;20497;-80
2023/10/10 01:50:09;;;;;;;50.70;32.10;;;16.90;99.90;;;17.34;78.73;101011.25;5036788;28;20095;-80
2023/10/10 01:52:45;;;;;;;55.45;35.10;;;17.00;99.90;;;17.31;78.77;101006.34;5021106;28;20296;-80
2023/10/10 01:55:15;;;;;;;47.95;32.00;;;16.90;99.90;;;17.30;78.81;101009.28;5030524;28;20113;-80
2023/10/10 01:57:43;;;;;;;54.65;34.20;;;16.90;99.90;;;17.29;79.13;101003.06;5028623;28;20037;-80
2023/10/10 02:00:20;;;;;;;51.70;32.75;;;16.90;99.90;;;17.30;78.66;101003.88;5031203;28;20126;-80
2023/10/10 02:02:49;;;;;;;48.25;33.05;;;16.90;99.90;;;17.29;78.71;101002.25;5022536;28;20046;-80
2023/10/10 02:05:29;;;;;;;57.67;33.40;;;16.90;99.90;;;17.28;78.95;101000.63;5031444;28;20076;-80
2023/10/10 02:07:58;;;;;;;52.85;32.65;;;16.90;99.90;;;17.28;78.81;100993.38;5048349;28;20042;-80
2023/10/10 02:10:29;;;;;;;53.38;33.55;;;16.90;99.90;;;17.28;78.94;100993.38;5036805;28;20060;-80
2023/10/10 02:13:00;;;;;;;49.30;34.30;;;16.90;99.90;;;17.27;78.59;100998.97;5039475;28;20049;-80
2023/10/10 02:15:32;;;;;;;53.72;34.88;;;16.90;99.90;;;17.27;78.56;100996.28;5031818;28;20136;-80
2023/10/10 02:18:04;;;;;;;56.20;35.95;;;16.90;99.90;;;17.25;78.60;100991.94;5038501;28;20136;-80
2023/10/10 02:23:34;;;;;;;51.75;35.60;;;16.90;99.90;;;17.22;78.39;100987.03;5117949;27;20139;-80
2023/10/10 02:26:23;;;;;;;58.28;36.85;;;16.90;99.90;;;17.22;78.47;100986.22;5069745;28;20053;-80
2023/10/10 02:29:16;;;;;;;55.42;34.38;;;16.90;99.90;;;17.20;78.55;100982.97;5109328;28;20048;-80
2023/10/10 02:31:41;;;;;;;57.60;37.25;;;16.90;99.90;;;17.19;78.57;100984.84;5086261;28;20044;-80
2023/10/10 02:34:10;;;;;;;56.80;38.10;;;16.80;99.90;;;17.18;78.36;100982.41;5096412;28;20052;-80
2023/10/10 02:36:41;;;;;;;59.58;36.97;;;16.80;99.90;;;17.16;78.33;100988.00;5078651;28;20094;-80
2023/10/10 02:39:27;;;;;;;58.50;38.03;;;16.80;99.90;;;17.16;78.56;100981.81;5084248;28;20097;-80
2023/10/10 02:41:59;;;;;;;62.38;39.72;;;16.80;99.90;;;17.14;78.28;100975.84;5098827;28;20044;-80
2023/10/10 02:44:38;;;;;;;57.72;38.72;;;16.80;99.90;;;17.13;78.35;100982.28;5098972;28;20043;-80
2023/10/10 02:47:06;;;;;;;59.15;37.38;;;16.80;99.90;;;17.12;78.22;100980.66;5100635;28;20046;-80
2023/10/10 02:49:37;;;;;;;57.45;37.90;;;16.80;99.90;;;17.12;77.92;100984.16;5097576;28;20127;-80
2023/10/10 02:52:06;;;;;;;57.72;38.83;;;16.70;99.90;;;17.10;77.92;100980.09;5092033;28;20052;-80
2023/10/10 02:54:43;;;;;;;60.22;38.83;;;16.70;99.90;;;17.08;77.86;100979.50;5098015;28;20097;-80
2023/10/10 02:57:30;;;;;;;59.75;38.80;;;16.70;99.90;;;17.07;77.82;100978.69;5099079;28;20060;-80
2023/10/10 03:02:58;;;;;;;62.05;38.95;;;16.70;99.90;;;17.01;77.60;100979.66;5161723;27;20115;-80
2023/10/10 03:05:50;;;;;;;61.87;38.33;;;16.60;99.90;;;16.98;77.66;100983.66;5154124;27;20138;-80
2023/10/10 03:08:34;;;;;;;57.78;37.78;;;16.60;99.90;;;16.97;77.60;100984.69;5138784;28;20049;-80
2023/10/10 03:11:13;;;;;;;57.50;37.17;;;16.60;99.90;;;16.97;77.34;100983.88;5114337;28;20133;-80
2023/10/10 03:13:47;;;;;;;55.67;37.40;;;16.60;99.90;;;16.96;77.38;100979.56;5151900;27;20063;-80
2023/10/10 03:19:25;;;;;;;50.92;35.17;;;16.60;99.90;;;16.93;76.73;100974.63;5126576;28;20044;-80
2023/10/10 03:22:19;;;;;;;55.53;37.08;;;16.50;99.90;;;16.90;76.69;100975.94;5138952;28;20092;-80
2023/10/10 03:25:03;;;;;;;57.17;35.92;;;16.50;99.90;;;16.89;76.36;100970.81;5153055;27;20039;-80
2023/10/10 03:30:21;;;;;;;55.75;36.58;;;16.50;99.90;;;16.87;76.33;100973.72;5139894;28;20039;-80
2023/10/10 03:33:08;;;;;;;51.63;34.63;;;16.50;99.90;;;16.84;76.07;100984.19;5124122;28;20047;-80
2023/10/10 03:35:59;;;;;;;50.38;33.60;;;16.40;99.90;;;16.81;75.67;100974.69;5156641;27;20126;-80
2023/10/10 03:39:23;;;;;;;52.72;35.22;;;16.40;99.90;;;16.80;75.83;100983.03;5139949;28;20114;-80
2023/10/10 05:23:29;;;;;;;53.75;33.47;;;16.40;99.90;;;16.79;75.87;100981.38;5135459;28;20035;-80
2023/10/10 05:23:31;;;;;;;60.22;38.50;;;15.80;99.90;;;16.27;74.63;100924.84;5116106;28;20107;-80
2023/10/10 05:26:02;;;;;;;62.22;37.97;;;15.80;99.90;;;16.26;74.89;100929.41;5107264;28;20051;-80
2023/10/10 05:28:32;;;;;;;60.78;37.53;;;15.80;99.90;;;16.27;74.98;100925.66;5102934;28;20051;-80
2023/10/10 05:31:03;;;;;;;56.33;36.95;;;15.80;99.90;;;16.28;74.78;100929.97;5120768;28;20086;-80
2023/10/10 05:33:36;;;;;;;65.05;39.03;;;15.80;99.90;;;16.28;75.13;100910.31;5122619;28;20521;-80
2023/10/10 05:36:06;;;;;;;60.53;38.33;;;15.80;99.90;;;16.25;75.27;100918.84;5120245;28;20047;-80
2023/10/10 05:38:39;;;;;;;58.22;36.20;;;15.80;99.90;;;16.23;75.51;100921.78;5120946;28;20067;-80
2023/10/10 05:41:10;;;;;;;62.95;37.97;;;15.80;99.90;;;16.24;75.47;100909.97;5122446;28;20053;-80
2023/10/10 05:43:37;;;;;;;63.37;37.20;;;15.80;99.90;;;16.26;75.90;100912.44;5122703;28;20047;-80
2023/10/10 05:46:08;;;;;;;59.65;37.15;;;15.80;99.90;;;16.23;75.83;100911.03;5083133;28;20048;-83
2023/10/10 05:48:36;;;;;;;59.50;36.55;;;15.80;99.90;;;16.23;76.27;100911.03;5115461;28;20157;-82
2023/10/10 05:51:04;;;;;;;67.05;38.20;;;15.80;99.90;;;16.17;76.54;100909.28;5113934;28;20383;-83
2023/10/10 05:53:33;;;;;;;61.75;36.63;;;15.80;99.90;;;16.17;76.51;100909.28;5113859;28;20574;-82
2023/10/10 05:56:12;;;;;;;64.60;37.55;;;15.80;99.90;;;16.17;76.61;100917.38;5115597;28;20402;-82
2023/10/10 05:58:44;;;;;;;59.72;35.65;;;15.80;99.90;;;16.17;76.56;100915.50;5117604;28;20040;-82
2023/10/10 06:01:14;;;;;;;65.20;36.65;;;15.80;99.90;;;16.18;76.63;100919.00;5116038;28;20086;-82
2023/10/10 06:03:42;;;;;;;60.28;36.70;;;15.80;99.90;;;16.19;76.45;100926.00;5116267;28;20043;-82
2023/10/10 06:06:12;;;;;;;54.42;35.40;;;15.80;99.90;;;16.17;76.57;100922.75;5113834;28;20046;-83
2023/10/10 06:08:43;;;;;;;54.87;33.53;;;15.80;99.90;;;16.14;76.61;100926.72;5112366;28;20046;-83
2023/10/10 06:11:13;;;;;;;52.08;31.92;;;15.80;99.90;;;16.17;76.66;100928.13;5112301;28;20131;-83
2023/10/10 06:13:43;;;;;;;55.38;31.50;;;15.80;99.90;;;16.21;76.55;100921.22;5096467;28;20048;-83
2023/10/10 06:16:14;;;;;;;54.10;31.60;;;15.90;99.90;;;16.23;76.22;100916.41;5111616;28;20043;-83
2023/10/10 06:18:47;;;;;;;51.05;32.05;;;15.80;99.90;;;16.23;76.26;100914.53;5111976;27;20426;-82
2023/10/10 06:21:15;;;;;;;46.15;29.73;;;15.90;99.90;;;16.22;76.31;100907.53;5101773;28;20039;-82
2023/10/10 06:23:44;;;;;;;51.92;29.42;;;15.90;99.90;;;16.19;75.90;100909.88;5113155;28;20067;-82
2023/10/10 06:26:13;;;;;;;49.05;28.02;;;15.90;99.90;;;16.11;76.30;100908.38;5112644;28;20536;-83
2023/10/10 06:28:47;;;;;;;45.95;27.00;;;15.90;99.90;;;16.15;76.23;100898.78;5116829;28;20040;-84
2023/10/10 06:31:19;;;;;;;48.17;26.60;;;15.90;99.90;;;16.16;76.27;100904.97;5124029;28;20143;-81
2023/10/10 06:33:49;;;;;;;40.30;25.17;;;15.90;99.90;;;16.19;76.73;100905.28;5125107;28;20051;-81
2023/10/10 06:36:35;;;;;;;44.40;24.95;;;15.90;99.90;;;16.23;76.43;100902.97;5141635;27;20052;-82
2023/10/10 06:41:54;;;;;;;47.85;25.45;;;16.00;99.90;;;16.31;76.06;100891.81;5111630;28;20116;-81
2023/10/10 06:44:34;;;;;;;44.42;25.50;;;16.00;99.90;;;16.32;76.01;100888.06;5124823;28;20448;-82
2023/10/10 06:47:21;;;;;;;41.75;25.48;;;16.00;99.90;;;16.35;75.85;100879.53;5092578;28;20075;-81
2023/10/10 06:49:55;;;;;;;48.70;22.85;;;16.00;99.90;;;16.38;75.80;100895.19;5118648;28;20055;-81
2023/10/10 06:52:23;;;;;;;41.97;23.38;;;16.10;99.90;;;16.40;75.74;100887.69;5131146;27;20040;-81
2023/10/10 06:54:57;;;;;;;42.10;22.88;;;16.10;99.90;;;16.42;75.68;100890.16;5125597;28;20100;-81
2023/10/10 06:57:38;;;;;;;44.08;24.30;;;16.10;99.90;;;16.45;75.76;100892.38;5111470;28;20051;-81
2023/10/10 07:00:27;;;;;;;39.47;24.10;;;16.10;99.90;;;16.44;75.63;100890.72;5124132;28;20058;-81
2023/10/10 07:02:57;;;;;;;41.38;24.30;;;16.10;99.90;;;16.46;75.58;100892.13;5126829;28;20040;-81
2023/10/10 07:05:27;;;;;;;40.65;23.35;;;16.20;99.90;;;16.43;75.97;100900.66;5137446;28;20047;-81
2023/10/10 07:07:58;;;;;;;43.28;23.88;;;16.20;99.90;;;16.44;76.01;100902.28;5121096;28;20044;-81
2023/10/10 07:10:32;;;;;;;39.40;22.80;;;16.20;99.90;;;16.49;76.24;100904.28;5091767;28;20116;-81
2023/10/10 07:13:01;;;;;;;41.38;21.77;;;16.20;99.90;;;16.53;76.11;100905.44;5140617;28;20127;-81
2023/10/10 07:15:35;;;;;;;36.97;21.20;;;16.30;99.90;;;16.54;76.10;100895.47;5076156;28;20065;-81
2023/10/10 07:18:09;;;;;;;35.22;21.13;;;16.30;99.90;;;16.60;76.00;100905.31;5127170;28;20043;-82
2023/10/10 07:21:04;;;;;;;37.97;21.33;;;16.30;99.90;;;16.62;75.97;100900.50;5125187;28;20047;-81
2023/10/10 07:23:39;;;;;;;36.55;20.92;;;16.40;99.90;;;16.62;76.04;100901.31;5123929;28;20044;-81
2023/10/10 07:26:18;;;;;;;39.25;22.40;;;16.40;99.90;;;16.61;75.82;100905.06;5122241;28;20047;-80
2023/10/10 07:28:48;;;;;;;39.60;21.83;;;16.40;99.90;;;16.57;76.07;100897.69;5118791;28;20051;-81
2023/10/10 07:31:22;;;;;;;34.30;20.23;;;16.40;99.90;;;16.64;75.80;100895.66;5116754;28;20056;-83
2023/10/10 07:34:03;;;;;;;35.83;20.77;;;16.50;99.90;;;16.63;75.83;100896.72;5100947;28;20047;-83
2023/10/10 07:36:31;;;;;;;38.30;19.38;;;16.50;99.90;;;16.63;75.97;100902.94;5103288;28;20630;-83
2023/10/10 07:41:44;;;;;;;;;;;16.60;99.90;;;16.79;75.64;100897.84;5113992;28;20480;-83
2023/10/10 07:44:16;;;;;;;34.58;19.40;;;16.70;99.90;;;16.81;75.55;100896.56;5106331;28;19926;-83
2023/10/10 07:47:07;;;;;;;35.97;19.55;;;16.80;99.90;;;16.81;75.19;100891.19;5115894;28;20058;-83
2023/10/10 07:49:34;;;;;;;36.03;17.52;;;16.80;99.90;;;16.88;75.18;100889.13;5102671;28;20044;-83
2023/10/10 07:52:04;;;;;;;36.53;19.15;;;16.90;99.90;;;16.89;74.24;100890.81;5115795;28;20115;-83
2023/10/10 07:54:38;;;;;;;39.58;19.02;;;16.90;99.90;;;16.89;75.17;100895.38;5133292;27;20040;-83
2023/10/10 07:57:12;;;;;;;35.03;18.48;;;16.90;99.90;;;16.96;74.96;100896.84;5123064;28;20036;-83
2023/10/10 07:59:39;;;;;;;35.05;19.33;;;17.00;99.90;;;17.01;75.58;100900.69;5120022;28;20047;-83
2023/10/10 08:02:24;;;;;;;32.25;18.33;;;17.10;99.90;;;17.05;74.58;100896.44;5135536;27;20074;-83
2023/10/10 08:04:55;;;;;;;33.65;18.45;;;17.10;99.90;;;17.10;74.50;100904.63;5111285;28;20051;-83
2023/10/10 08:07:24;;;;;;;32.88;18.10;;;17.20;99.90;;;17.14;74.80;100889.59;5116458;28;20098;-83
2023/10/10 08:10:13;;;;;;;32.15;17.92;;;17.20;99.90;;;17.18;74.39;100888.06;5120315;28;20069;-83
2023/10/10 08:12:43;;;;;;;36.08;17.75;;;17.30;99.90;;;17.22;74.66;100881.09;5116235;28;20047;-83
2023/10/10 08:15:20;;;;;;;31.67;18.52;;;17.30;99.90;;;17.27;74.10;100873.06;5119067;28;20042;-83
2023/10/10 08:17:58;;;;;;;36.75;17.23;;;17.40;99.90;;;17.27;73.58;100874.97;5113379;28;20052;-83
2023/10/10 08:21:07;;;;;;;32.75;17.65;;;17.40;99.90;;;17.33;74.55;100872.13;5114421;28;20048;-83
2023/10/10 08:23:24;;;;;;;34.92;17.15;;;17.40;99.90;;;17.37;74.11;100875.13;5110068;28;20040;-83
2023/10/10 08:25:52;;;;;;;33.78;16.92;;;17.50;99.90;;;17.37;73.69;100875.97;5098481;28;20499;-83
2023/10/10 08:28:22;;;;;;;31.23;16.10;;;17.60;99.90;;;17.42;73.66;100878.72;5117628;28;20081;-83
2023/10/10 08:30:49;;;;;;;28.35;15.85;;;17.60;99.90;;;17.47;74.13;100873.41;5118895;28;20043;-83
2023/10/10 08:33:17;;;;;;;27.55;15.02;;;17.60;99.90;;;17.53;73.17;100881.59;5120042;28;20093;-83
2023/10/10 08:35:48;;;;;;;34.33;16.10;;;17.70;99.90;;;17.54;72.75;100867.84;5115180;28;20058;-83
2023/10/10 08:38:19;;;;;;;25.52;14.05;;;17.70;99.90;;;17.57;72.50;100874.59;5120767;28;20101;-82
2023/10/10 08:40:57;;;;;;;23.65;13.65;;;17.70;99.90;;;17.57;71.31;100877.31;5077423;27;20040;-83
2023/10/10 08:43:29;;;;;;;27.33;14.30;;;17.70;99.90;;;17.60;72.09;100879.50;5110216;28;20048;-83
2023/10/10 08:46:08;;;;;;;23.83;12.15;;;17.80;99.90;;;17.64;72.69;100888.75;5118153;28;20044;-83
2023/10/10 08:48:38;;;;;;;25.25;12.20;;;17.80;99.90;;;17.69;72.61;100883.44;5119087;28;20101;-83
2023/10/10 08:51:07;;;;;;;27.40;11.82;;;17.80;99.90;;;17.74;73.14;100881.66;5111452;28;20052;-83
2023/10/10 08:53:38;;;;;;;23.25;10.80;;;17.90;99.90;;;17.81;72.29;100881.47;5103573;28;20411;-83
2023/10/10 08:56:07;;;;;;;21.80;10.68;;;17.90;99.90;;;17.85;71.09;100876.38;5110035;28;20063;-83
2023/10/10 08:58:35;;;;;;;21.98;10.73;;;18.00;99.90;;;17.83;70.74;100878.53;5117272;28;20047;-83
2023/10/10 09:01:05;;;;;;;22.63;10.60;;;18.00;99.90;;;17.86;70.27;100878.84;5119360;28;20081;-83
2023/10/10 09:03:34;;;;;;;24.67;10.02;;;18.00;99.90;;;17.88;70.29;100879.41;5084433;28;20044;-83
2023/10/10 09:06:19;;;;;;;21.42;10.50;;;18.00;99.90;;;17.94;71.07;100881.09;5115147;27;20048;-83
2023/10/10 09:08:49;;;;;;;19.65;10.15;;;18.10;99.90;;;17.99;70.02;100874.97;5099127;28;20051;-83
2023/10/10 09:11:22;;;;;;;17.10;9.52;;;18.20;99.90;;;18.03;70.13;100878.78;5114994;28;20043;-85
2023/10/10 09:13:53;;;;;;;17.42;10.13;;;18.20;99.90;;;18.09;70.11;100882.38;5099718;28;20048;-84
2023/10/10 09:16:41;;;;;;;22.63;10.75;;;18.30;99.90;;;18.12;69.48;100888.09;5113602;28;20040;-82
2023/10/10 09:19:10;;;;;;;17.90;8.80;;;18.30;99.90;;;18.17;70.00;100884.63;5109440;28;20074;-82
2023/10/10 09:21:51;;;;;;;21.27;9.40;;;18.40;99.90;;;18.23;68.79;100886.31;5120517;28;20044;-83
2023/10/10 09:24:28;;;;;;;16.98;9.43;;;18.50;99.90;;;18.25;69.20;100894.97;5117058;28;20058;-82
2023/10/10 09:26:59;;;;;;;18.27;9.07;;;18.50;99.90;;;18.27;69.32;100890.16;5110912;28;20050;-83
2023/10/10 09:29:34;;;;;;;18.48;8.68;;;18.50;99.90;;;18.27;67.88;100882.88;5121617;28;20054;-83
2023/10/10 09:32:05;;;;;;;16.05;7.82;;;18.50;99.90;;;18.32;69.35;100881.31;5116932;28;20043;-84
2023/10/10 09:34:40;;;;;;;14.85;7.78;;;18.50;99.90;;;18.37;68.39;100879.47;5100341;28;20146;-82
2023/10/10 09:37:13;;;;;;;17.83;7.78;;;18.60;99.90;;;18.41;69.18;100880.59;5119958;28;20044;-81
2023/10/10 09:39:43;;;;;;;15.93;7.60;;;18.60;99.90;;;18.45;67.82;100880.94;5103707;28;20063;-81
2023/10/10 09:42:28;;;;;;;13.65;7.55;;;18.70;99.90;;;18.45;67.87;100879.03;5101231;28;20051;-81
2023/10/10 09:47:55;;;;;;;16.50;7.68;;;18.70;99.90;;;18.48;67.30;100885.81;5105956;28;20059;-81
2023/10/10 09:50:35;;;;;;;14.65;7.07;;;18.70;99.90;;;18.48;67.36;100880.41;5101278;28;20051;-80
2023/10/10 09:53:20;;;;;;;16.85;8.05;;;18.70;99.90;;;18.50;67.60;100886.38;5119412;28;20101;-81
2023/10/10 09:55:47;;;;;;;16.15;7.40;;;18.70;99.90;;;18.53;68.48;100883.97;5115663;28;20052;-81
2023/10/10 09:58:26;;;;;;;13.55;6.72;;;18.70;99.90;;;18.58;67.57;100885.91;5119922;28;20620;-81
2023/10/10 10:01:14;;;;;;;14.40;6.95;;;18.80;99.90;;;18.64;67.55;100881.38;5120336;27;20036;-81
2023/10/10 10:03:55;;;;;;;14.43;6.55;;;18.80;99.90;;;18.65;66.84;100883.84;5098670;28;20043;-81
2023/10/10 10:06:52;;;;;;;12.95;6.38;;;18.90;99.90;;;18.67;67.14;100878.16;5100630;28;20051;-81
2023/10/10 10:09:51;;;;;;;11.50;5.97;;;18.90;99.90;;;18.70;65.99;100875.00;5068888;28;20048;-81
2023/10/10 10:12:53;;;;;;;13.25;6.82;;;18.90;99.90;;;18.76;67.06;100884.78;5081708;28;20044;-81
2023/10/10 10:15:48;;;;;;;14.38;6.35;;;19.00;99.90;;;18.78;66.19;100882.63;5084332;28;20036;-80
2023/10/10 10:18:28;;;;;;;13.63;5.88;;;19.00;99.90;;;18.82;66.11;100877.53;5069854;28;20044;-80
2023/10/10 10:21:16;;;;;;;11.63;5.60;;;19.00;99.90;;;18.88;66.04;100874.63;5083936;28;20499;-81
2023/10/10 10:23:47;;;;;;;15.38;6.63;;;19.10;99.90;;;18.92;64.33;100873.03;5083228;28;20286;-80
2023/10/10 10:26:31;;;;;;;14.90;6.10;;;19.10;99.90;;;18.96;66.34;100871.44;5084050;28;20051;-83
2023/10/10 10:29:00;;;;;;;11.50;5.45;;;19.20;99.90;;;18.99;65.50;100864.72;5099496;28;20362;-79
2023/10/10 10:31:37;;;;;;;15.75;6.10;;;19.20;99.90;;;19.04;64.46;100856.66;5092210;28;20036;-80
2023/10/10 10:34:15;;;;;;;12.98;5.95;;;19.20;99.90;;;19.06;63.93;100853.69;5083413;28;20142;-80
2023/10/10 10:36:45;;;;;;;12.05;5.82;;;19.30;99.90;;;19.07;64.83;100855.31;5080962;28;20044;-79
2023/10/10 10:39:19;;;;;;;11.40;5.70;;;19.30;99.90;;;19.09;64.53;100858.59;5083269;28;20498;-79
2023/10/10 10:41:53;;;;;;;11.77;5.90;;;19.30;99.90;;;19.12;63.85;100852.66;5107357;28;20043;-79
2023/10/10 10:44:58;;;;;;;11.43;5.53;;;19.30;99.90;;;19.14;63.55;100854.03;5080078;28;20040;-79
2023/10/10 10:47:59;;;;;;;17.83;6.13;;;19.40;99.90;;;19.16;65.23;100848.34;5096361;28;20063;-79
2023/10/10 10:50:57;;;;;;;12.27;5.40;;;19.40;99.90;;;19.17;63.83;100849.97;5056314;28;20058;-79
2023/10/10 10:53:33;;;;;;;13.93;6.43;;;19.40;99.90;;;19.17;63.66;100844.56;5050281;28;20050;-79
2023/10/10 10:59:19;;;;;;;13.60;5.78;;;19.40;99.90;;;19.19;63.10;100839.75;5064613;28;20111;-80
2023/10/10 11:01:54;;;;;;;13.10;6.13;;;19.40;99.90;;;19.23;61.88;100840.84;5083524;28;20048;-79
2023/10/10 11:04:40;;;;;;;14.88;5.53;;;19.40;99.90;;;19.24;61.87;100845.19;5120866;28;20069;-79
2023/10/10 11:07:08;;;;;;;11.60;6.00;;;19.40;99.90;;;19.29;62.89;100832.50;5121000;28;20040;-79
2023/10/10 11:09:42;;;;;;;19.33;5.95;;;19.50;99.90;;;19.34;61.36;100834.44;5122857;28;20579;-79
2023/10/10 11:12:12;;;;;;;12.93;5.88;;;19.60;99.90;;;19.34;61.28;100839.03;5120870;28;20492;-79
2023/10/10 11:14:45;;;;;;;13.90;6.40;;;19.60;99.90;;;19.37;61.89;100823.06;5120034;28;20077;-79
2023/10/10 11:17:17;;;;;;;10.95;5.80;;;19.60;99.90;;;19.36;61.51;100832.28;5121399;28;20069;-80
2023/10/10 11:19:48;;;;;;;11.35;5.75;;;19.60;99.90;;;19.38;61.85;100829.34;5122316;28;20108;-80
2023/10/10 11:22:17;;;;;;;11.25;5.88;;;19.60;99.90;;;19.40;61.21;100822.56;5123304;28;20119;-79
2023/10/10 11:24:47;;;;;;;10.20;5.68;;;19.60;99.90;;;19.42;60.81;100816.88;5126871;28;20119;-80
2023/10/10 11:27:17;;;;;;;12.52;5.72;;;19.60;99.90;;;19.44;61.66;100815.56;5120442;28;20040;-79
2023/10/10 11:29:47;;;;;;;12.52;5.97;;;19.70;99.90;;;19.50;60.51;100809.09;5122408;28;20099;-80
2023/10/10 11:32:23;;;;;;;13.45;6.00;;;19.70;99.90;;;19.61;61.24;100815.41;5108075;28;20067;-80
2023/10/10 11:34:52;;;;;;;13.48;5.97;;;19.80;99.90;;;19.60;61.73;100807.56;5106907;28;20084;-82
2023/10/10 11:37:21;;;;;;;13.80;6.22;;;19.80;99.90;;;19.61;60.00;100801.88;5112978;28;20128;-80
2023/10/10 11:39:57;;;;;;;16.35;5.82;;;19.80;99.90;;;19.64;60.48;100803.25;5102372;28;20074;-80
2023/10/10 11:42:33;;;;;;;14.82;6.10;;;19.90;99.90;;;19.66;59.02;100798.38;5089387;28;20051;-80
2023/10/10 11:45:07;;;;;;;13.27;6.57;;;19.90;99.90;;;19.69;59.31;100795.16;5112251;28;20050;-80
2023/10/10 11:47:42;;;;;;;12.20;5.82;;;19.90;99.90;;;19.67;60.00;100789.22;5128278;28;20043;-79
2023/10/10 11:50:12;;;;;;;12.93;6.05;;;19.90;99.90;;;19.65;59.51;100796.75;5128206;28;20135;-80
2023/10/10 11:52:52;;;;;;;12.20;5.85;;;19.90;99.90;;;19.71;59.46;100793.00;5121947;28;20103;-80
2023/10/10 11:55:21;;;;;;;12.45;5.88;;;19.90;99.90;;;19.69;59.51;100787.03;5117274;28;20050;-80
2023/10/10 11:57:50;;;;;;;14.00;6.10;;;19.90;99.90;;;19.68;60.22;100785.41;5121531;28;20040;-80
2023/10/10 12:00:22;;;;;;;12.15;6.10;;;19.90;99.90;;;19.74;59.94;100784.34;5129373;28;20048;-80
2023/10/10 12:02:50;;;;;;;13.50;6.03;;;19.90;99.90;;;19.72;60.27;100779.22;5124377;27;20107;-80
2023/10/10 12:08:06;;;;;;;12.98;5.90;;;20.00;99.90;;;19.85;59.68;100772.47;5110414;28;20399;-80
2023/10/10 12:10:47;;;;;;;12.70;5.28;;;20.10;99.90;;;19.86;60.68;100776.81;5115807;28;20086;-80
2023/10/10 12:13:33;;;;;;;12.27;5.65;;;20.10;99.90;;;19.88;61.22;100768.44;5107377;28;20047;-80
2023/10/10 12:16:07;;;;;;;11.73;5.72;;;20.10;99.90;;;19.84;60.18;100772.75;5109075;28;20067;-80
2023/10/10 12:18:36;;;;;;;18.10;6.38;;;20.10;99.90;;;19.82;59.79;100769.50;5117259;28;20126;-80
2023/10/10 12:21:04;;;;;;;11.82;6.38;;;20.00;99.90;;;19.82;60.54;100770.31;5123516;28;20043;-79
2023/10/10 12:23:32;;;;;;;14.05;6.40;;;20.00;99.90;;;19.85;60.00;100758.13;5114773;28;20055;-80
2023/10/10 12:26:00;;;;;;;12.05;6.30;;;20.10;99.90;;;19.90;60.15;100764.38;5122404;28;20040;-80
2023/10/10 12:28:28;;;;;;;14.90;6.25;;;20.10;99.90;;;19.87;61.12;100761.41;5120588;28;20050;-83
2023/10/10 12:31:00;;;;;;;11.32;6.43;;;20.20;99.90;;;19.89;61.28;100765.47;5122154;28;20040;-80
2023/10/10 12:33:29;;;;;;;13.95;6.05;;;20.10;99.90;;;19.93;59.79;100760.34;5095642;28;20061;-80
2023/10/10 12:35:57;;;;;;;13.32;5.80;;;20.20;99.90;;;19.89;61.01;100770.88;5107067;28;20047;-80
2023/10/10 12:38:32;;;;;;;12.10;6.03;;;20.10;99.90;;;19.88;59.97;100769.25;5115333;28;20575;-81
2023/10/10 12:41:05;;;;;;;14.82;6.20;;;20.10;99.90;;;19.94;60.58;100768.19;5124892;28;20039;-81